createdAt,value
2018-04-02T00:36:47.674Z,99.90
2018-04-02T00:41:52.658Z,99.90
2018-04-02T00:46:55.616Z,99.90
2018-04-02T00:52:00.588Z,99.90
2018-04-02T00:57:03.553Z,99.90
2018-04-02T01:02:07.288Z,99.90
2018-04-02T01:07:11.006Z,99.90
2018-04-02T01:12:13.992Z,99.90
2018-04-02T01:17:18.126Z,99.90
2018-04-02T01:22:22.125Z,99.90
2018-04-02T01:27:26.881Z,99.90
2018-04-02T01:32:30.627Z,99.90
2018-04-02T01:37:33.632Z,99.90
2018-04-02T01:42:36.675Z,99.90
2018-04-02T01:47:39.652Z,99.90
2018-04-02T01:52:42.808Z,99.90
2018-04-02T01:57:46.814Z,99.90
2018-04-02T02:02:49.841Z,99.90
2018-04-02T02:07:52.785Z,99.90
2018-04-02T02:12:55.728Z,99.90
2018-04-02T02:17:58.776Z,99.90
2018-04-02T02:23:01.920Z,99.90
2018-04-02T02:28:04.868Z,99.90
2018-04-02T02:33:07.879Z,99.90
2018-04-02T02:38:11.665Z,99.90
2018-04-02T02:43:14.646Z,99.90
2018-04-02T02:48:17.628Z,99.90
2018-04-02T02:53:21.492Z,99.90
2018-04-02T02:58:24.530Z,99.90
2018-04-02T03:03:27.563Z,99.90
2018-04-02T03:08:30.796Z,99.90
2018-04-02T03:13:34.511Z,99.90
2018-04-02T03:18:38.583Z,99.90
2018-04-02T03:23:41.543Z,99.90
2018-04-02T03:28:48.079Z,99.90
2018-04-02T03:33:51.807Z,99.90
2018-04-02T03:38:58.136Z,99.90
2018-04-02T03:44:01.306Z,99.90
2018-04-02T03:49:04.410Z,99.90
2018-04-02T03:54:07.391Z,99.90
2018-04-02T03:59:10.414Z,99.90
2018-04-02T04:04:17.431Z,99.90
2018-04-02T04:09:20.448Z,99.90
2018-04-02T04:14:23.476Z,99.90
2018-04-02T04:19:26.916Z,99.90
2018-04-02T04:24:29.939Z,99.90
2018-04-02T04:29:32.908Z,99.90
2018-04-02T04:34:35.811Z,99.90
2018-04-02T04:39:38.811Z,99.90
2018-04-02T04:44:41.907Z,99.90
2018-04-02T04:49:44.895Z,99.90
2018-04-02T04:54:47.866Z,99.90
2018-04-02T04:59:50.788Z,99.90
2018-04-02T05:04:54.307Z,99.90
2018-04-02T05:10:01.781Z,99.90
2018-04-02T05:15:06.700Z,99.90
2018-04-02T05:20:16.454Z,99.90
2018-04-02T05:30:34.442Z,99.90
2018-04-02T05:35:45.442Z,99.90
2018-04-02T05:46:53.814Z,99.90
2018-04-02T05:57:37.018Z,99.90
2018-04-02T06:02:40.016Z,99.90
2018-04-02T06:07:47.109Z,99.90
2018-04-02T06:18:28.969Z,99.90
2018-04-02T06:23:35.493Z,99.90
2018-04-02T06:28:38.553Z,99.90
2018-04-02T06:33:42.634Z,99.90
2018-04-02T06:38:46.371Z,99.90
2018-04-02T06:43:49.359Z,99.90
2018-04-02T06:48:52.398Z,99.90
2018-04-02T06:53:55.309Z,99.90
2018-04-02T06:58:58.308Z,99.90
2018-04-02T07:04:01.261Z,99.90
2018-04-02T07:09:07.751Z,99.90
2018-04-02T07:14:10.719Z,99.90
2018-04-02T07:19:13.659Z,99.90
2018-04-02T07:24:16.594Z,99.90
2018-04-02T07:29:19.554Z,99.90
2018-04-02T07:34:23.176Z,99.90
2018-04-02T07:39:26.875Z,99.90
2018-04-02T07:44:29.835Z,99.90
2018-04-02T07:49:32.733Z,99.90
2018-04-02T07:54:36.305Z,99.90
2018-04-02T07:59:39.170Z,99.90
2018-04-02T08:04:42.006Z,99.90
2018-04-02T08:09:44.918Z,99.90
2018-04-02T08:14:48.860Z,99.90
2018-04-02T08:19:51.790Z,99.90
2018-04-02T08:24:54.671Z,99.90
2018-04-02T08:29:57.599Z,99.90
2018-04-02T08:35:00.753Z,99.90
2018-04-02T08:40:04.556Z,99.90
2018-04-02T08:45:07.590Z,99.90
2018-04-02T09:00:28.349Z,99.90
2018-04-02T09:10:52.012Z,99.90
2018-04-02T09:21:26.318Z,99.90
2018-04-02T09:26:31.716Z,99.90
2018-04-02T09:31:38.951Z,99.90
2018-04-02T09:36:45.774Z,99.90
2018-04-02T09:41:52.324Z,99.90
2018-04-02T09:46:55.310Z,99.90
2018-04-02T09:51:59.502Z,97.80
2018-04-02T09:57:04.127Z,97.80
2018-04-02T10:02:14.972Z,91.00
2018-04-02T10:07:22.160Z,90.20
2018-04-02T10:12:25.818Z,87.40
2018-04-02T10:17:28.901Z,87.20
2018-04-02T10:22:32.847Z,83.60
2018-04-02T10:27:35.863Z,74.10
2018-04-02T10:32:38.941Z,71.10
2018-04-02T10:37:42.627Z,72.70
2018-04-02T10:42:45.586Z,72.60
2018-04-02T10:47:51.574Z,69.30
2018-04-02T10:52:54.457Z,65.40
2018-04-02T10:57:57.409Z,66.10
2018-04-02T11:03:00.449Z,66.80
2018-04-02T11:08:03.377Z,59.90
2018-04-02T11:13:07.831Z,61.20
2018-04-02T11:18:10.956Z,61.00
2018-04-02T11:23:13.897Z,59.80
2018-04-02T11:28:17.369Z,59.10
2018-04-02T11:33:20.364Z,57.10
2018-04-02T11:38:24.634Z,57.10
2018-04-02T11:43:30.449Z,57.30
2018-04-02T11:48:34.350Z,56.30
2018-04-02T11:53:38.437Z,55.80
2018-04-02T11:58:42.182Z,53.90
2018-04-02T12:03:46.108Z,55.90
2018-04-02T12:08:49.914Z,56.00
2018-04-02T12:13:52.830Z,55.40
2018-04-02T12:18:56.485Z,53.50
2018-04-02T12:29:04.922Z,53.70
2018-04-02T12:34:07.855Z,53.10
2018-04-02T12:39:12.126Z,53.60
2018-04-02T12:44:14.990Z,53.50
2018-04-02T12:49:22.988Z,53.50
2018-04-02T12:54:26.710Z,53.00
2018-04-02T12:59:29.819Z,52.90
2018-04-02T13:04:33.688Z,53.90
2018-04-02T13:09:37.302Z,53.50
2018-04-02T13:14:40.483Z,54.00
2018-04-02T13:19:44.204Z,51.10
2018-04-02T13:24:48.065Z,52.50
2018-04-02T13:29:56.569Z,52.50
2018-04-02T13:35:01.549Z,51.70
2018-04-02T13:40:04.510Z,51.50
2018-04-02T13:45:08.194Z,52.90
2018-04-02T13:50:11.142Z,52.80
2018-04-02T13:55:15.879Z,51.80
2018-04-02T14:00:19.543Z,50.60
2018-04-02T14:05:22.494Z,50.60
2018-04-02T14:10:28.048Z,49.30
2018-04-02T14:15:36.371Z,49.20
2018-04-02T14:20:39.282Z,49.30
2018-04-02T14:25:42.082Z,49.30
2018-04-02T14:30:44.929Z,49.80
2018-04-02T14:35:47.900Z,49.10
2018-04-02T14:40:50.745Z,49.40
2018-04-02T14:45:55.021Z,49.40
2018-04-02T14:51:00.292Z,50.50
2018-04-02T14:56:03.923Z,51.40
2018-04-02T15:01:06.783Z,51.40
2018-04-02T15:06:10.188Z,50.40
2018-04-02T15:11:13.162Z,50.60
2018-04-02T15:16:16.122Z,50.10
2018-04-02T15:21:19.771Z,50.10
2018-04-02T15:26:24.540Z,50.00
2018-04-02T15:31:27.797Z,51.60
2018-04-02T15:36:32.343Z,51.20
2018-04-02T15:41:35.672Z,51.10
2018-04-02T15:46:39.269Z,51.50
2018-04-02T15:51:42.121Z,51.60
2018-04-02T15:56:45.878Z,52.80
2018-04-02T16:01:49.955Z,52.20
2018-04-02T16:06:52.897Z,52.00
2018-04-02T16:11:56.699Z,52.30
2018-04-02T16:16:59.547Z,53.20
2018-04-02T16:22:02.495Z,53.80
2018-04-02T16:27:05.393Z,54.50
2018-04-02T16:32:08.255Z,54.70
2018-04-02T16:37:11.166Z,55.20
2018-04-02T16:42:15.227Z,55.60
2018-04-02T16:47:18.454Z,55.40
2018-04-02T16:52:21.524Z,55.10
2018-04-02T16:57:25.366Z,55.30
2018-04-02T17:02:28.317Z,55.80
2018-04-02T17:07:31.312Z,55.50
2018-04-02T17:12:34.537Z,55.50
2018-04-02T17:17:37.635Z,55.30
2018-04-02T17:22:41.026Z,55.50
2018-04-02T17:27:44.237Z,56.00
2018-04-02T17:32:48.552Z,56.20
2018-04-02T17:37:51.450Z,56.60
2018-04-02T17:42:54.371Z,57.10
2018-04-02T17:47:58.290Z,58.90
2018-04-02T17:53:02.093Z,59.40
2018-04-02T17:58:05.018Z,59.40
2018-04-02T18:03:08.557Z,60.20
2018-04-02T18:08:12.097Z,61.20
2018-04-02T18:13:15.881Z,63.90
2018-04-02T18:18:22.367Z,63.80
2018-04-02T18:23:26.881Z,62.60
2018-04-02T18:28:30.501Z,62.80
2018-04-02T18:33:33.670Z,63.00
2018-04-02T18:38:36.640Z,64.80
2018-04-02T18:43:40.535Z,66.50
2018-04-02T18:48:44.424Z,67.30
2018-04-02T18:53:48.742Z,67.20
2018-04-02T18:58:55.156Z,64.40
2018-04-02T19:04:05.003Z,62.90
2018-04-02T19:09:08.294Z,62.20
2018-04-02T19:14:11.168Z,62.50
2018-04-02T19:19:14.810Z,62.00
2018-04-02T19:24:17.669Z,62.00
2018-04-02T19:29:20.712Z,63.10
2018-04-02T19:34:23.624Z,62.60
2018-04-02T19:39:26.472Z,62.20
2018-04-02T19:44:29.370Z,63.80
2018-04-02T19:49:32.236Z,63.50
2018-04-02T19:54:35.140Z,64.10
2018-04-02T19:59:38.032Z,63.30
2018-04-02T20:04:40.920Z,63.40
2018-04-02T20:09:44.151Z,62.00
2018-04-02T20:14:50.274Z,63.00
2018-04-02T20:19:53.331Z,63.60
2018-04-02T20:24:56.204Z,63.50
2018-04-02T20:29:59.105Z,63.40
2018-04-02T20:35:03.653Z,62.70
2018-04-02T20:40:07.522Z,63.40
2018-04-02T20:45:10.429Z,64.20
2018-04-02T20:50:13.271Z,65.60
2018-04-02T20:55:16.130Z,66.10
2018-04-02T21:00:19.336Z,66.50
2018-04-02T21:05:22.237Z,66.50
2018-04-02T21:10:25.813Z,67.00
2018-04-02T21:15:28.676Z,68.00
2018-04-02T21:20:32.576Z,68.20
2018-04-02T21:25:35.559Z,68.20
2018-04-02T21:30:40.775Z,68.40
2018-04-02T21:35:44.396Z,69.90
2018-04-02T21:40:48.004Z,71.00
2018-04-02T21:45:51.258Z,70.80
2018-04-02T21:50:55.044Z,72.40
2018-04-02T21:55:58.751Z,73.20
2018-04-02T22:01:01.820Z,73.10
2018-04-02T22:06:05.936Z,74.40
2018-04-02T22:11:09.656Z,77.00
2018-04-02T22:16:12.796Z,77.00
2018-04-02T22:21:15.666Z,78.20
2018-04-02T22:26:19.323Z,78.30
2018-04-02T22:31:22.945Z,78.30
2018-04-02T22:36:25.847Z,79.40
2018-04-02T22:41:28.745Z,83.70
2018-04-02T22:46:31.745Z,89.50
2018-04-02T22:51:34.778Z,93.30
2018-04-02T22:56:37.628Z,98.90
2018-04-02T23:01:41.043Z,99.90
2018-04-02T23:06:45.966Z,99.90
2018-04-02T23:11:49.631Z,99.90
2018-04-02T23:16:53.227Z,99.90
2018-04-02T23:21:56.256Z,99.90
2018-04-02T23:26:59.372Z,99.90
2018-04-02T23:32:02.859Z,99.90
2018-04-02T23:37:06.058Z,99.90
2018-04-02T23:42:11.021Z,99.90
2018-04-02T23:47:14.788Z,99.90
2018-04-02T23:52:18.523Z,99.90
2018-04-02T23:57:22.320Z,99.90
